createdAt,value
2023-05-20T00:04:54.904Z,3.97
2023-05-20T00:09:56.650Z,4.05
2023-05-20T00:14:58.481Z,3.80
2023-05-20T00:20:00.442Z,3.80
2023-05-20T00:25:02.193Z,4.00
2023-05-20T00:30:04.116Z,4.00
2023-05-20T00:35:06.467Z,4.10
2023-05-20T00:40:08.613Z,4.60
2023-05-20T00:45:10.853Z,4.33
2023-05-20T00:50:12.958Z,4.15
2023-05-20T00:55:15.189Z,4.25
2023-05-20T01:00:16.836Z,4.20
2023-05-20T01:05:18.574Z,4.18
2023-05-20T01:10:20.928Z,3.90
2023-05-20T01:15:26.634Z,4.05
2023-05-20T01:20:32.428Z,4.20
2023-05-20T01:25:34.501Z,4.22
2023-05-20T01:30:46.377Z,4.40
2023-05-20T01:35:48.859Z,4.57
2023-05-20T01:40:53.579Z,4.60
2023-05-20T01:45:55.401Z,4.75
2023-05-20T01:50:57.411Z,4.50
2023-05-20T01:55:59.157Z,4.38
2023-05-20T02:01:02.042Z,4.20
2023-05-20T02:06:05.536Z,4.65
2023-05-20T02:11:07.569Z,4.80
2023-05-20T02:16:09.297Z,5.30
2023-05-20T02:26:14.053Z,4.75
2023-05-20T02:31:16.414Z,5.10
2023-05-20T02:36:18.249Z,4.70
2023-05-20T02:41:20.036Z,5.30
2023-05-20T02:46:22.381Z,5.20
2023-05-20T02:51:25.760Z,5.78
2023-05-20T02:56:28.718Z,5.88
2023-05-20T03:06:32.771Z,5.68
2023-05-20T03:11:34.512Z,5.53
2023-05-20T03:16:36.764Z,6.03
2023-05-20T03:21:38.565Z,6.43
2023-05-20T03:26:43.222Z,5.88
2023-05-20T03:31:45.250Z,5.53
2023-05-20T03:36:47.160Z,6.47
2023-05-20T03:41:48.981Z,5.85
2023-05-20T03:46:51.274Z,6.40
2023-05-20T03:51:53.140Z,6.17
2023-05-20T03:56:55.113Z,5.73
2023-05-20T04:01:57.348Z,5.60
2023-05-20T04:07:07.760Z,5.65
2023-05-20T04:12:11.457Z,5.97
2023-05-20T04:17:13.397Z,6.28
2023-05-20T04:22:15.215Z,6.47
2023-05-20T04:27:17.128Z,5.93
2023-05-20T04:32:19.673Z,6.43
2023-05-20T04:37:23.999Z,6.85
2023-05-20T04:42:26.001Z,6.47
2023-05-20T04:47:31.735Z,6.57
2023-05-20T04:52:33.518Z,6.22
2023-05-20T04:57:35.385Z,6.53
2023-05-20T05:02:37.663Z,6.43
2023-05-20T05:07:39.705Z,6.53
2023-05-20T05:12:41.556Z,6.80
2023-05-20T05:17:43.452Z,6.10
2023-05-20T05:22:45.470Z,6.78
2023-05-20T05:27:50.337Z,6.07
2023-05-20T05:32:52.548Z,6.28
2023-05-20T05:37:54.862Z,5.97
2023-05-20T05:42:57.157Z,6.53
2023-05-20T05:47:59.085Z,6.30
2023-05-20T05:53:01.197Z,6.50
2023-05-20T05:58:03.215Z,6.57
2023-05-20T06:03:06.245Z,6.60
2023-05-20T06:08:11.753Z,6.43
2023-05-20T06:13:13.731Z,6.80
2023-05-20T06:18:16.047Z,7.10
2023-05-20T06:23:17.941Z,6.97
2023-05-20T06:28:33.359Z,6.93
2023-05-20T06:33:35.365Z,7.87
2023-05-20T06:38:47.513Z,7.13
2023-05-20T06:43:53.226Z,6.72
2023-05-20T06:49:12.793Z,7.22
2023-05-20T06:54:15.065Z,6.80
2023-05-20T06:59:18.215Z,6.13
2023-05-20T07:04:20.537Z,6.40
2023-05-20T07:09:23.718Z,6.18
2023-05-20T07:14:25.833Z,6.10
2023-05-20T07:19:27.964Z,6.97
2023-05-20T07:24:30.273Z,6.90
2023-05-20T07:29:32.255Z,6.45
2023-05-20T07:34:34.911Z,6.13
2023-05-20T07:39:36.931Z,6.17
2023-05-20T07:44:42.171Z,6.20
2023-05-20T07:49:44.485Z,5.73
2023-05-20T07:54:46.390Z,6.15
2023-05-20T07:59:50.824Z,6.05
2023-05-20T08:04:53.122Z,5.88
2023-05-20T08:09:55.748Z,5.50
2023-05-20T08:14:57.924Z,5.75
2023-05-20T08:19:59.637Z,5.75
2023-05-20T08:25:01.381Z,5.63
2023-05-20T08:30:04.709Z,5.30
2023-05-20T08:35:07.825Z,5.38
2023-05-20T08:40:11.780Z,5.53
2023-05-20T08:45:17.357Z,5.60
2023-05-20T08:50:20.931Z,5.72
2023-05-20T08:55:38.849Z,5.28
2023-05-20T09:00:41.976Z,5.40
2023-05-20T09:05:43.685Z,5.07
2023-05-20T09:10:45.589Z,5.47
2023-05-20T09:15:47.348Z,5.13
2023-05-20T09:20:52.926Z,5.20
2023-05-20T09:25:54.776Z,4.65
2023-05-20T09:30:59.624Z,5.45
2023-05-20T09:36:07.422Z,5.40
2023-05-20T09:41:13.876Z,5.40
2023-05-20T09:46:22.229Z,5.60
2023-05-20T09:51:27.830Z,4.93
2023-05-20T09:56:32.090Z,5.00
2023-05-20T10:01:34.123Z,4.90
2023-05-20T10:07:06.678Z,4.55
2023-05-20T10:12:45.149Z,4.65
2023-05-20T10:18:08.297Z,4.90
2023-05-20T10:23:21.675Z,4.70
2023-05-20T10:28:30.928Z,4.63
2023-05-20T10:33:43.244Z,3.88
2023-05-20T10:38:59.609Z,4.22
2023-05-20T10:44:06.622Z,4.13
2023-05-20T10:49:22.390Z,4.20
2023-05-20T10:54:29.434Z,4.40
2023-05-20T10:59:33.859Z,4.25
2023-05-20T11:04:37.593Z,4.70
2023-05-20T11:09:42.746Z,4.40
2023-05-20T11:14:44.625Z,4.15
2023-05-20T11:19:47.779Z,4.23
2023-05-20T11:24:49.598Z,3.70
2023-05-20T11:29:51.760Z,3.60
2023-05-20T11:34:53.584Z,3.75
2023-05-20T11:40:08.116Z,4.07
2023-05-20T11:45:14.264Z,4.63
2023-05-20T11:50:20.182Z,4.78
2023-05-20T11:55:21.927Z,4.75
2023-05-20T12:00:24.203Z,4.83
2023-05-20T12:05:26.597Z,4.88
2023-05-20T12:10:28.368Z,5.20
2023-05-20T12:15:30.758Z,5.23
2023-05-20T12:25:36.681Z,4.20
2023-05-20T12:30:38.619Z,4.55
2023-05-20T12:35:42.242Z,5.50
2023-05-20T12:40:44.151Z,5.20
2023-05-20T12:45:46.392Z,5.93
2023-05-20T12:50:48.125Z,6.03
2023-05-20T12:55:50.380Z,6.30
2023-05-20T13:05:54.126Z,5.53
2023-05-20T13:10:55.901Z,5.80
2023-05-20T13:15:57.608Z,5.87
2023-05-20T13:20:59.380Z,5.20
2023-05-20T13:26:01.202Z,5.72
2023-05-20T13:31:05.014Z,6.30
2023-05-20T13:36:07.025Z,6.07
2023-05-20T13:41:09.114Z,5.65
2023-05-20T13:46:11.292Z,5.65
2023-05-20T13:51:13.387Z,6.10
2023-05-20T13:56:15.289Z,6.13
2023-05-20T14:01:17.104Z,6.13
2023-05-20T14:06:19.294Z,6.35
2023-05-20T14:11:21.797Z,5.78
2023-05-20T14:16:25.042Z,6.10
2023-05-20T14:21:26.894Z,5.85
2023-05-20T14:26:28.677Z,5.45
2023-05-20T14:31:30.493Z,6.03
2023-05-20T14:36:32.353Z,6.07
2023-05-20T14:41:34.016Z,5.70
2023-05-20T14:46:36.372Z,5.45
2023-05-20T14:51:38.180Z,6.30
2023-05-20T14:56:40.811Z,6.50
2023-05-20T15:01:42.579Z,6.07
2023-05-20T15:11:46.680Z,6.13
2023-05-20T15:16:48.729Z,6.55
2023-05-20T15:21:52.135Z,6.80
2023-05-20T15:26:54.934Z,8.30
2023-05-20T15:31:56.636Z,8.23
2023-05-20T15:36:58.390Z,7.20
2023-05-20T15:42:02.865Z,6.80
2023-05-20T15:47:05.859Z,6.78
2023-05-20T15:52:07.977Z,6.40
2023-05-20T15:57:10.266Z,6.18
2023-05-20T16:02:12.064Z,6.95
2023-05-20T16:07:14.750Z,6.63
2023-05-20T16:12:16.976Z,6.82
2023-05-20T16:17:21.233Z,6.07
2023-05-20T16:22:23.417Z,6.90
2023-05-20T16:27:25.389Z,6.38
2023-05-20T16:32:28.035Z,6.97
2023-05-20T16:42:31.596Z,6.85
2023-05-20T16:47:34.168Z,6.82
2023-05-20T16:57:39.848Z,6.55
2023-05-20T17:02:41.798Z,7.10
2023-05-20T17:07:43.520Z,6.90
2023-05-20T17:12:46.039Z,6.70
2023-05-20T17:17:47.903Z,7.70
2023-05-20T17:22:50.085Z,7.10
2023-05-20T17:27:52.092Z,7.57
2023-05-20T17:32:54.982Z,7.40
2023-05-20T17:37:56.856Z,7.50
2023-05-20T17:42:58.605Z,7.40
2023-05-20T17:48:00.835Z,7.40
2023-05-20T17:53:03.009Z,7.72
2023-05-20T17:58:07.773Z,7.68
2023-05-20T18:03:10.494Z,7.82
2023-05-20T18:08:12.405Z,7.78
2023-05-20T18:13:14.170Z,8.03
2023-05-20T18:18:16.228Z,7.43
2023-05-20T18:23:20.687Z,7.70
2023-05-20T18:28:22.451Z,8.18
2023-05-20T18:33:24.547Z,8.17
2023-05-20T18:38:26.540Z,7.60
2023-05-20T18:43:30.761Z,8.43
2023-05-20T18:48:32.915Z,8.10
2023-05-20T18:53:34.681Z,8.40
2023-05-20T18:58:36.460Z,8.53
2023-05-20T19:03:38.204Z,8.63
2023-05-20T19:08:40.984Z,8.83
2023-05-20T19:18:44.513Z,9.43
2023-05-20T19:23:47.023Z,9.38
2023-05-20T19:28:48.758Z,9.00
2023-05-20T19:33:51.541Z,9.37
2023-05-20T19:43:54.844Z,10.02
2023-05-20T19:48:59.792Z,9.07
2023-05-20T19:54:01.556Z,9.00
2023-05-20T19:59:03.880Z,9.50
2023-05-20T20:04:06.036Z,9.98
2023-05-20T20:09:08.475Z,9.73
2023-05-20T20:14:10.226Z,9.18
2023-05-20T20:19:12.137Z,9.33
2023-05-20T20:24:15.274Z,9.23
2023-05-20T20:29:16.980Z,9.68
2023-05-20T20:34:18.713Z,9.98
2023-05-20T20:39:20.893Z,10.40
2023-05-20T20:44:22.900Z,10.27
2023-05-20T20:49:26.364Z,9.90
2023-05-20T20:54:29.673Z,9.82
2023-05-20T20:59:31.797Z,9.63
2023-05-20T21:04:34.136Z,9.77
2023-05-20T21:09:36.646Z,9.25
2023-05-20T21:14:38.459Z,9.70
2023-05-20T21:19:40.162Z,10.10
2023-05-20T21:24:42.057Z,9.93
2023-05-20T21:29:44.149Z,9.53
2023-05-20T21:34:46.092Z,9.82
2023-05-20T21:39:48.837Z,9.68
2023-05-20T21:44:50.633Z,9.80
2023-05-20T21:49:52.323Z,9.73
2023-05-20T21:54:54.029Z,9.55
2023-05-20T21:59:55.882Z,10.33
2023-05-20T22:05:00.238Z,9.50
2023-05-20T22:10:02.353Z,9.93
2023-05-20T22:15:05.198Z,9.48
2023-05-20T22:20:08.511Z,8.90
2023-05-20T22:25:10.880Z,9.70
2023-05-20T22:30:13.233Z,9.95
2023-05-20T22:35:15.352Z,8.88
2023-05-20T22:40:17.966Z,9.07
2023-05-20T22:50:23.874Z,9.00
2023-05-20T22:55:25.696Z,9.55
2023-05-20T23:00:27.701Z,9.63
2023-05-20T23:05:30.179Z,9.33
2023-05-20T23:10:31.979Z,9.30
2023-05-20T23:15:33.890Z,9.13
2023-05-20T23:20:35.841Z,9.75
2023-05-20T23:25:37.856Z,8.82
2023-05-20T23:30:39.775Z,9.20
2023-05-20T23:35:44.102Z,8.38
2023-05-20T23:40:45.917Z,8.45
2023-05-20T23:45:47.914Z,9.18
2023-05-20T23:50:50.027Z,9.07
2023-05-20T23:55:51.774Z,8.75
